createdAt,value
2023-10-28T00:02:39.652Z,97267.16
2023-10-28T00:07:42.829Z,97276.47
2023-10-28T00:12:46.107Z,97271.81
2023-10-28T00:17:50.416Z,97277.09
2023-10-28T00:22:55.063Z,97282.78
2023-10-28T00:27:58.728Z,97289.06
2023-10-28T00:33:03.715Z,97298.13
2023-10-28T00:38:06.949Z,97290.59
2023-10-28T00:43:11.714Z,97300.81
2023-10-28T00:48:17.102Z,97305.28
2023-10-28T00:53:20.239Z,97296.06
2023-10-28T00:58:24.599Z,97298.31
2023-10-28T01:03:31.857Z,97299.25
2023-10-28T01:08:36.184Z,97307.28
2023-10-28T01:13:40.003Z,97302.88
2023-10-28T01:18:46.475Z,97300.47
2023-10-28T01:23:50.811Z,97310.53
2023-10-28T01:28:53.762Z,97317.94
2023-10-28T01:33:56.889Z,97326.84
2023-10-28T01:39:01.566Z,97322.03
2023-10-28T01:44:04.744Z,97326.25
2023-10-28T01:49:07.686Z,97328.00
2023-10-28T01:54:11.941Z,97324.75
2023-10-28T01:59:15.637Z,97325.22
2023-10-28T02:04:18.584Z,97327.53
2023-10-28T02:09:22.877Z,97329.91
2023-10-28T02:14:26.279Z,97327.41
2023-10-28T02:19:29.207Z,97332.81
2023-10-28T02:24:33.508Z,97337.63
2023-10-28T02:29:38.550Z,97331.59
2023-10-28T02:34:43.540Z,97330.66
2023-10-28T02:39:48.516Z,97334.16
2023-10-28T02:44:52.018Z,97339.97
2023-10-28T02:49:54.909Z,97339.31
2023-10-28T02:54:59.149Z,97352.53
2023-10-28T03:00:02.370Z,97343.72
2023-10-28T03:05:06.625Z,97349.28
2023-10-28T03:10:11.976Z,97339.47
2023-10-28T03:15:16.091Z,97343.06
2023-10-28T03:20:22.054Z,97342.25
2023-10-28T03:25:28.273Z,97338.50
2023-10-28T03:30:31.261Z,97344.66
2023-10-28T03:35:34.121Z,97345.50
2023-10-28T03:40:41.170Z,97350.38
2023-10-28T03:45:44.200Z,97348.94
2023-10-28T03:50:47.146Z,97355.16
2023-10-28T03:55:51.425Z,97363.38
2023-10-28T04:00:55.468Z,97357.75
2023-10-28T04:05:58.414Z,97362.22
2023-10-28T04:11:04.852Z,97371.09
2023-10-28T04:16:08.369Z,97369.03
2023-10-28T04:21:11.470Z,97374.97
2023-10-28T04:26:15.959Z,97376.69
2023-10-28T04:31:18.847Z,97378.38
2023-10-28T04:36:21.747Z,97382.09
2023-10-28T04:41:26.015Z,97387.59
2023-10-28T04:46:30.599Z,97378.84
2023-10-28T04:51:33.480Z,97382.75
2023-10-28T04:56:38.291Z,97391.66
2023-10-28T05:01:41.199Z,97383.00
2023-10-28T05:06:44.614Z,97391.59
2023-10-28T05:11:53.593Z,97388.16
2023-10-28T05:16:56.654Z,97386.09
2023-10-28T05:22:02.504Z,97387.25
2023-10-28T05:27:07.229Z,97399.69
2023-10-28T05:32:10.227Z,97408.53
2023-10-28T05:37:13.378Z,97412.59
2023-10-28T05:42:17.638Z,97414.44
2023-10-28T05:47:20.561Z,97420.50
2023-10-28T05:52:23.427Z,97430.38
2023-10-28T05:57:28.169Z,97430.63
2023-10-28T06:02:31.096Z,97438.44
2023-10-28T06:07:34.396Z,97450.13
2023-10-28T06:12:38.783Z,97453.78
2023-10-28T06:17:41.854Z,97461.66
2023-10-28T06:22:44.903Z,97470.06
2023-10-28T06:27:49.838Z,97463.91
2023-10-28T06:32:52.812Z,97477.63
2023-10-28T06:37:55.799Z,97468.34
2023-10-28T06:43:00.224Z,97483.69
2023-10-28T06:48:04.869Z,97478.19
2023-10-28T06:53:10.364Z,97486.91
2023-10-28T06:58:16.805Z,97490.28
2023-10-28T07:03:19.932Z,97492.41
2023-10-28T07:08:22.962Z,97497.31
2023-10-28T07:13:27.602Z,97499.25
2023-10-28T07:18:31.179Z,97503.59
2023-10-28T07:23:34.074Z,97515.38
2023-10-28T07:28:38.873Z,97503.66
2023-10-28T07:33:41.814Z,97519.41
2023-10-28T07:38:44.858Z,97518.28
2023-10-28T07:43:49.268Z,97527.34
2023-10-28T07:48:54.414Z,97534.19
2023-10-28T07:53:57.316Z,97539.41
2023-10-28T07:59:02.961Z,97553.25
2023-10-28T08:04:06.894Z,97557.34
2023-10-28T08:09:10.146Z,97562.69
2023-10-28T08:14:15.272Z,97572.94
2023-10-28T08:19:18.989Z,97574.34
2023-10-28T08:24:23.590Z,97581.28
2023-10-28T08:29:27.896Z,97591.59
2023-10-28T08:34:30.916Z,97595.88
2023-10-28T08:39:34.994Z,97599.47
2023-10-28T08:44:40.788Z,97606.28
2023-10-28T08:49:46.546Z,97608.53
2023-10-28T08:54:52.404Z,97618.97
2023-10-28T08:59:57.501Z,97619.28
2023-10-28T09:05:00.507Z,97633.44
2023-10-28T09:10:05.489Z,97636.53
2023-10-28T09:15:10.938Z,97643.00
2023-10-28T09:20:14.181Z,97655.59
2023-10-28T09:25:17.189Z,97665.13
2023-10-28T09:30:21.822Z,97673.84
2023-10-28T09:35:28.596Z,97677.38
2023-10-28T09:40:31.821Z,97689.97
2023-10-28T09:45:37.033Z,97691.31
2023-10-28T09:50:49.422Z,97682.06
2023-10-28T09:55:58.326Z,97684.97
2023-10-28T10:01:10.801Z,97690.16
2023-10-28T10:06:13.823Z,97690.16
2023-10-28T10:11:23.524Z,97684.03
2023-10-28T10:16:40.182Z,97682.59
2023-10-28T10:21:52.450Z,97685.63
2023-10-28T10:26:56.420Z,97680.63
2023-10-28T10:32:00.834Z,97683.78
2023-10-28T10:37:05.134Z,97697.78
2023-10-28T10:42:09.142Z,97698.97
2023-10-28T10:47:14.404Z,97697.34
2023-10-28T10:52:18.275Z,97703.09
2023-10-28T10:57:21.184Z,97724.09
2023-10-28T11:02:26.095Z,97716.47
2023-10-28T11:07:29.747Z,97717.72
2023-10-28T11:12:32.932Z,97729.22
2023-10-28T11:17:37.408Z,97725.94
2023-10-28T11:22:42.064Z,97723.75
2023-10-28T11:27:45.794Z,97711.78
2023-10-28T11:32:52.799Z,97699.19
2023-10-28T11:37:55.912Z,97701.53
2023-10-28T11:42:59.405Z,97709.50
2023-10-28T11:48:04.376Z,97709.63
2023-10-28T11:53:07.583Z,97718.59
2023-10-28T11:58:10.579Z,97721.94
2023-10-28T12:03:15.077Z,97717.00
2023-10-28T12:08:18.798Z,97727.16
2023-10-28T12:13:21.891Z,97720.81
2023-10-28T12:18:26.132Z,97724.91
2023-10-28T12:23:29.064Z,97715.03
2023-10-28T12:28:32.019Z,97716.53
2023-10-28T12:33:38.775Z,97733.03
2023-10-28T12:38:42.190Z,97728.91
2023-10-28T12:43:45.116Z,97731.22
2023-10-28T12:48:49.470Z,97716.75
2023-10-28T12:53:52.420Z,97735.63
2023-10-28T12:58:55.253Z,97727.53
2023-10-28T13:03:59.667Z,97733.47
2023-10-28T13:09:06.309Z,97738.94
2023-10-28T13:14:09.580Z,97741.78
2023-10-28T13:19:15.099Z,97744.25
2023-10-28T13:24:18.146Z,97755.50
2023-10-28T13:29:21.132Z,97754.19
2023-10-28T13:34:26.218Z,97751.59
2023-10-28T13:39:29.124Z,97751.38
2023-10-28T13:44:32.215Z,97756.28
2023-10-28T13:49:36.717Z,97756.66
2023-10-28T13:54:40.062Z,97757.72
2023-10-28T13:59:44.567Z,97759.84
2023-10-28T14:04:48.952Z,97756.41
2023-10-28T14:09:51.909Z,97762.41
2023-10-28T14:14:54.802Z,97766.41
2023-10-28T14:19:59.100Z,97768.75
2023-10-28T14:25:01.998Z,97769.63
2023-10-28T14:30:05.901Z,97776.16
2023-10-28T14:35:10.791Z,97781.94
2023-10-28T14:40:14.664Z,97774.19
2023-10-28T14:45:17.656Z,97764.06
2023-10-28T14:50:21.935Z,97766.41
2023-10-28T14:55:24.827Z,97758.53
2023-10-28T15:00:27.737Z,97763.22
2023-10-28T15:05:32.144Z,97757.59
2023-10-28T15:10:37.012Z,97762.25
2023-10-28T15:15:40.822Z,97772.34
2023-10-28T15:20:45.099Z,97780.53
2023-10-28T15:25:48.315Z,97764.66
2023-10-28T15:30:51.252Z,97768.28
2023-10-28T15:35:55.999Z,97776.38
2023-10-28T15:41:02.516Z,97778.53
2023-10-28T15:46:07.846Z,97785.44
2023-10-28T15:51:13.787Z,97789.63
2023-10-28T15:56:19.979Z,97796.28
2023-10-28T16:01:22.978Z,97791.44
2023-10-28T16:06:27.273Z,97798.44
2023-10-28T16:11:30.217Z,97799.16
2023-10-28T16:16:33.460Z,97803.72
2023-10-28T16:21:40.233Z,97805.44
2023-10-28T16:26:47.803Z,97808.94
2023-10-28T16:31:50.701Z,97817.88
2023-10-28T16:36:56.133Z,97812.97
2023-10-28T16:41:59.075Z,97824.09
2023-10-28T16:47:02.006Z,97830.63
2023-10-28T16:52:06.814Z,97827.34
2023-10-28T16:57:09.902Z,97836.91
2023-10-28T17:02:12.772Z,97845.56
2023-10-28T17:07:17.117Z,97845.41
2023-10-28T17:12:20.033Z,97853.63
2023-10-28T17:17:22.988Z,97853.03
2023-10-28T17:22:27.456Z,97866.28
2023-10-28T17:27:30.330Z,97865.69
2023-10-28T17:32:33.278Z,97859.06
2023-10-28T17:37:38.173Z,97859.97
2023-10-28T17:42:41.455Z,97870.69
2023-10-28T17:47:44.685Z,97879.41
2023-10-28T17:52:49.135Z,97875.69
2023-10-28T17:57:52.484Z,97879.75
2023-10-28T18:02:55.493Z,97884.66
2023-10-28T18:07:59.871Z,97882.16
2023-10-28T18:13:02.781Z,97873.41
2023-10-28T18:18:06.385Z,97866.19
2023-10-28T18:23:10.893Z,97871.34
2023-10-28T18:28:13.826Z,97867.09
2023-10-28T18:33:17.851Z,97871.25
2023-10-28T18:38:22.235Z,97882.13
2023-10-28T18:43:25.182Z,97871.13
2023-10-28T18:48:28.116Z,97889.97
2023-10-28T18:53:34.181Z,97902.03
2023-10-28T18:58:40.674Z,97906.41
2023-10-28T19:03:48.069Z,97905.16
2023-10-28T19:08:57.369Z,97900.56
2023-10-28T19:14:00.299Z,97903.22
2023-10-28T19:19:03.256Z,97913.47
2023-10-28T19:24:08.606Z,97909.22
2023-10-28T19:29:12.593Z,97919.34
2023-10-28T19:34:16.903Z,97925.09
2023-10-28T19:39:23.978Z,97930.25
2023-10-28T19:44:27.181Z,97933.13
2023-10-28T19:49:30.405Z,97920.28
2023-10-28T19:54:34.932Z,97929.34
2023-10-28T19:59:38.108Z,97931.88
2023-10-28T20:04:41.542Z,97939.34
2023-10-28T20:09:46.148Z,97930.25
2023-10-28T20:14:49.528Z,97933.81
2023-10-28T20:19:52.493Z,97940.47
2023-10-28T20:24:56.823Z,97949.44
2023-10-28T20:29:59.740Z,97943.44
2023-10-28T20:35:02.747Z,97941.59
2023-10-28T20:40:08.723Z,97938.63
2023-10-28T20:45:12.699Z,97939.19
2023-10-28T20:50:16.516Z,97931.94
2023-10-28T20:55:21.103Z,97939.63
2023-10-28T21:00:25.507Z,97941.34
2023-10-28T21:05:28.524Z,97938.53
2023-10-28T21:10:33.618Z,97943.81
2023-10-28T21:15:36.578Z,97940.28
2023-10-28T21:20:40.182Z,97931.41
2023-10-28T21:25:45.187Z,97941.09
2023-10-28T21:30:48.219Z,97940.59
2023-10-28T21:35:54.274Z,97950.22
2023-10-28T21:41:00.921Z,97948.97
2023-10-28T21:46:04.787Z,97939.06
2023-10-28T21:51:08.733Z,97929.69
2023-10-28T21:56:13.007Z,97921.84
2023-10-28T22:01:18.537Z,97921.38
2023-10-28T22:06:21.544Z,97926.25
2023-10-28T22:11:25.882Z,97917.91
2023-10-28T22:16:29.558Z,97917.03
2023-10-28T22:21:32.680Z,97916.78
2023-10-28T22:26:37.056Z,97922.81
2023-10-28T22:31:40.025Z,97918.06
2023-10-28T22:36:43.118Z,97917.41
2023-10-28T22:41:47.421Z,97936.63
2023-10-28T22:46:50.406Z,97936.38
2023-10-28T22:51:53.274Z,97944.16
2023-10-28T22:56:57.656Z,97933.41
2023-10-28T23:02:00.677Z,97937.41
2023-10-28T23:07:03.674Z,97938.53
2023-10-28T23:12:09.615Z,97927.72
2023-10-28T23:17:13.476Z,97929.78
2023-10-28T23:22:16.860Z,97923.75
2023-10-28T23:27:21.309Z,97921.25
2023-10-28T23:32:24.433Z,97919.13
2023-10-28T23:37:33.893Z,97912.06
2023-10-28T23:42:38.305Z,97909.06
2023-10-28T23:47:41.348Z,97908.50
2023-10-28T23:52:44.327Z,97895.59
2023-10-28T23:57:50.701Z,97915.44
